Time;durP1;ratioP1;P1;durP2;ratioP2;P2;SDS_P1;SDS_P2;PMS_P1;PMS_P2;Temp;Humidity;BMP_temperature;BMP_pressure;BME280_temperature;BME280_humidity;BME280_pressure;Samples;Min_cycle;Max_cycle;Signal;HPM_P1;HPM_P2
2022/09/11 00:01:29;;;;;;;;;6.00;6.00;;;;;18.34;69.91;101473.22;5053846;28;45458;-71
2022/09/11 00:03:55;;;;;;;;;8.67;7.67;;;;;18.42;70.18;101499.59;5058049;28;45247;-72
2022/09/11 00:06:23;;;;;;;;;10.67;8.67;;;;;18.40;70.08;101489.00;5055694;28;46830;-71
2022/09/11 00:08:52;;;;;;;;;7.67;7.67;;;;;18.40;70.31;101496.97;5054759;28;45894;-72
2022/09/11 00:11:21;;;;;;;;;4.00;4.00;;;;;18.42;70.54;101494.28;5050221;28;45611;-70
2022/09/11 00:13:49;;;;;;;;;6.33;5.67;;;;;18.30;70.22;101457.41;5035326;28;45346;-69
2022/09/11 00:16:22;;;;;;;;;9.33;8.00;;;;;18.43;69.99;101486.28;5053302;28;45466;-70
2022/09/11 00:18:53;;;;;;;;;9.33;8.33;;;;;18.44;69.82;101487.19;5054654;28;45426;-69
2022/09/11 00:21:19;;;;;;;;;7.00;5.33;;;;;18.43;70.14;101480.13;5057727;28;45488;-69
2022/09/11 00:23:50;;;;;;;;;9.33;8.67;;;;;18.26;70.20;101466.31;5058119;28;45335;-70
2022/09/11 00:26:18;;;;;;;;;10.00;9.33;;;;;18.26;69.90;101463.66;5056561;28;45351;-70
2022/09/11 00:28:44;;;;;;;;;10.67;9.00;;;;;18.18;70.09;101466.44;5039532;28;45279;-70
2022/09/11 00:31:13;;;;;;;;;9.67;8.33;;;;;18.23;70.03;101468.09;5056857;28;45642;-73
2022/09/11 00:33:39;;;;;;;;;8.33;8.33;;;;;18.33;70.43;101491.81;5025366;28;45540;-74
2022/09/11 00:36:17;;;;;;;;;10.33;8.00;;;;;18.27;70.42;101481.31;5045462;28;45715;-73
2022/09/11 00:38:44;;;;;;;;;8.67;8.33;;;;;18.25;70.39;101483.09;5021061;28;45477;-73
2022/09/11 00:41:14;;;;;;;;;10.67;10.33;;;;;18.13;70.59;101474.50;5052632;28;45476;-73
2022/09/11 00:44:06;;;;;;;;;11.33;11.00;;;;;18.20;70.45;101491.16;5056607;28;45438;-73
2022/09/11 00:46:40;;;;;;;;;15.67;12.00;;;;;18.18;70.64;101485.88;5071976;28;45661;-72
2022/09/11 00:49:14;;;;;;;;;9.33;7.67;;;;;18.11;70.63;101468.34;5048284;28;45375;-72
2022/09/11 00:51:43;;;;;;;;;12.33;10.00;;;;;18.17;70.73;101475.28;5054833;28;45547;-73
2022/09/11 00:54:13;;;;;;;;;10.33;8.33;;;;;18.11;70.91;101478.94;5060071;28;45685;-73
2022/09/11 00:56:41;;;;;;;;;13.33;11.00;;;;;18.13;70.96;101473.63;5059129;28;47679;-73
2022/09/11 00:59:07;;;;;;;;;13.67;10.67;;;;;17.99;70.62;101458.81;5057824;28;45359;-74
2022/09/11 01:01:36;;;;;;;;;13.00;11.00;;;;;18.05;70.68;101468.41;5024634;28;46078;-73
2022/09/11 01:04:04;;;;;;;;;13.00;9.67;;;;;17.89;70.87;101432.47;5055651;28;45487;-73
2022/09/11 01:06:31;;;;;;;;;9.67;9.67;;;;;18.04;70.84;101453.44;5063547;28;45522;-73
2022/09/11 01:09:00;;;;;;;;;8.33;7.67;;;;;18.14;70.75;101462.97;5061152;28;45387;-72
2022/09/11 01:11:55;;;;;;;;;8.67;7.00;;;;;18.13;70.85;101466.53;5060089;28;45529;-74
2022/09/11 01:14:38;;;;;;;;;8.33;8.00;;;;;18.12;70.67;101456.81;5060996;28;45295;-73
2022/09/11 01:17:31;;;;;;;;;4.00;0.00;;;;;18.13;70.52;101465.66;5060489;28;45802;-73
2022/09/11 01:20:16;;;;;;;;;9.00;6.67;;;;;18.12;70.45;101462.13;5043446;28;45697;-74
2022/09/11 01:23:01;;;;;;;;;7.00;7.00;;;;;18.03;70.62;101443.72;5059137;28;45416;-73
2022/09/11 01:26:05;;;;;;;;;8.67;8.67;;;;;18.07;70.91;101449.84;5058974;28;45462;-72
2022/09/11 01:28:53;;;;;;;;;7.33;6.00;;;;;17.98;71.06;101450.88;5057301;28;45349;-72
2022/09/11 01:31:25;;;;;;;;;6.00;6.00;;;;;17.86;71.30;101433.41;5048514;28;45500;-73
2022/09/11 01:34:05;;;;;;;;;9.00;9.00;;;;;17.98;71.09;101454.41;5053369;28;45587;-72
2022/09/11 01:36:37;;;;;;;;;8.00;8.00;;;;;18.00;70.97;101449.09;5051901;28;45458;-72
2022/09/11 01:39:03;;;;;;;;;7.33;7.33;;;;;17.54;71.06;101389.78;5043521;28;45669;-72
2022/09/11 01:41:47;;;;;;;;;6.67;6.00;;;;;17.98;70.98;101445.56;5055569;28;45457;-73
2022/09/11 01:44:28;;;;;;;;;9.00;6.33;;;;;17.86;70.84;101437.84;5039273;28;45518;-73
2022/09/11 01:46:55;;;;;;;;;7.67;7.00;;;;;17.88;70.98;101438.69;5058300;28;45349;-72
2022/09/11 01:49:31;;;;;;;;;7.00;7.00;;;;;18.00;70.88;101449.09;5059930;28;45238;-73
2022/09/11 01:52:02;;;;;;;;;9.67;8.00;;;;;17.47;70.96;101363.41;5054212;28;45358;-74
2022/09/11 01:54:41;;;;;;;;;7.67;7.00;;;;;17.96;71.08;101450.94;5055762;28;46029;-73
2022/09/11 01:57:19;;;;;;;;;10.00;8.00;;;;;17.93;71.10;101453.59;5055772;28;45520;-73
2022/09/11 01:59:59;;;;;;;;;8.33;8.33;;;;;17.91;71.35;101452.75;5055443;28;45838;-72
2022/09/11 02:02:32;;;;;;;;;10.00;8.33;;;;;17.84;71.48;101447.59;5055246;28;45581;-72
2022/09/11 02:05:08;;;;;;;;;11.00;7.33;;;;;17.70;71.15;101413.34;5056675;28;45521;-71
2022/09/11 02:07:40;;;;;;;;;10.00;7.33;;;;;17.90;70.98;101452.81;5057775;28;45658;-74
2022/09/11 02:10:13;;;;;;;;;9.00;7.33;;;;;17.91;71.13;101447.44;5055594;28;46457;-73
2022/09/11 02:13:10;;;;;;;;;6.00;6.00;;;;;17.76;71.18;101426.50;5054369;28;45614;-73
2022/09/11 02:16:05;;;;;;;;;8.67;8.67;;;;;17.73;71.12;101413.31;5055888;28;45491;-72
2022/09/11 02:18:39;;;;;;;;;7.00;7.00;;;;;17.86;71.38;101444.00;5036004;28;45507;-73
2022/09/11 02:21:07;;;;;;;;;7.67;7.00;;;;;17.81;71.18;101435.28;5055487;28;45522;-73
2022/09/11 02:23:33;;;;;;;;;9.33;7.67;;;;;17.65;71.26;101408.13;5056675;28;45577;-71
2022/09/11 02:26:00;;;;;;;;;7.67;7.67;;;;;17.57;71.18;101394.13;5055403;28;45421;-73
2022/09/11 02:28:26;;;;;;;;;9.33;7.33;;;;;17.84;71.36;101443.16;5055037;28;45362;-72
2022/09/11 02:30:52;;;;;;;;;5.00;5.00;;;;;17.66;71.36;101412.53;5057316;28;46531;-73
2022/09/11 02:33:36;;;;;;;;;9.00;7.33;;;;;17.68;71.18;101420.47;5055921;28;45441;-73
2022/09/11 02:36:29;;;;;;;;;7.00;7.00;;;;;17.79;71.02;101437.91;5055246;28;45757;-72
2022/09/11 02:39:19;;;;;;;;;6.00;5.67;;;;;17.71;71.59;101434.53;5055216;28;45594;-73
2022/09/11 02:42:06;;;;;;;;;8.00;6.67;;;;;17.67;71.43;101426.66;5057857;28;45526;-73
2022/09/11 02:44:57;;;;;;;;;8.67;6.33;;;;;17.53;71.64;101408.31;5039629;28;45502;-72
2022/09/11 02:47:44;;;;;;;;;8.67;8.67;;;;;17.76;71.63;101447.69;5041756;28;45849;-72
2022/09/11 02:50:39;;;;;;;;;10.00;8.33;;;;;17.65;71.50;101426.66;5054103;28;45514;-73
2022/09/11 02:53:23;;;;;;;;;9.33;9.33;;;;;17.79;71.58;101445.84;5054151;28;45710;-73
2022/09/11 02:56:16;;;;;;;;;9.00;8.33;;;;;17.71;71.19;101437.16;5054801;28;45578;-72
2022/09/11 02:58:55;;;;;;;;;12.00;7.67;;;;;17.81;71.27;101448.53;5042447;28;45389;-73
2022/09/11 03:01:22;;;;;;;;;9.00;7.67;;;;;17.77;71.38;101444.13;5043803;28;45459;-72
2022/09/11 03:03:48;;;;;;;;;9.67;8.33;;;;;17.65;71.26;101426.66;5054635;28;45316;-73
2022/09/11 03:06:23;;;;;;;;;8.33;7.33;;;;;17.81;71.68;101453.81;5056703;28;45436;-73
2022/09/11 03:08:49;;;;;;;;;7.67;7.33;;;;;17.72;71.85;101438.91;5054325;28;45642;-72
2022/09/11 03:11:16;;;;;;;;;9.67;9.33;;;;;17.62;71.61;101429.38;5054488;28;45384;-73
2022/09/11 03:13:42;;;;;;;;;8.67;7.33;;;;;17.60;71.31;101408.19;5054703;28;46064;-73
2022/09/11 03:16:09;;;;;;;;;10.33;8.33;;;;;17.76;71.31;101443.25;5053957;28;45470;-73
2022/09/11 03:18:35;;;;;;;;;8.00;7.67;;;;;17.51;71.58;101395.13;5056913;28;45416;-72
2022/09/11 03:21:02;;;;;;;;;9.67;9.00;;;;;17.66;71.72;101433.72;5055133;28;45589;-73
2022/09/11 03:23:28;;;;;;;;;8.67;8.67;;;;;17.53;71.67;101409.19;5048925;28;45496;-73
2022/09/11 03:25:54;;;;;;;;;11.00;9.00;;;;;17.52;71.68;101410.09;5053827;28;45430;-73
2022/09/11 03:28:22;;;;;;;;;10.00;8.33;;;;;17.66;71.78;101441.66;5055092;28;45438;-74
2022/09/11 03:30:49;;;;;;;;;7.33;6.67;;;;;17.13;72.17;101353.34;5056339;28;45458;-73
2022/09/11 03:33:16;;;;;;;;;9.67;7.00;;;;;17.64;71.66;101432.88;5053857;28;46486;-73
2022/09/11 03:35:44;;;;;;;;;8.00;7.67;;;;;17.64;72.08;101438.16;5057527;28;45510;-73
2022/09/11 03:38:10;;;;;;;;;9.67;9.67;;;;;17.60;71.85;101424.09;5057900;28;45474;-72
2022/09/11 03:40:37;;;;;;;;;9.67;8.33;;;;;17.62;71.65;101432.00;5057555;28;45428;-73
2022/09/11 03:43:03;;;;;;;;;8.00;7.00;;;;;17.08;71.75;101356.06;5054125;28;46483;-72
2022/09/11 03:45:29;;;;;;;;;9.00;6.33;;;;;17.60;71.67;101439.97;5053729;28;45713;-72
2022/09/11 03:47:55;;;;;;;;;9.67;7.67;;;;;17.60;71.52;101434.69;5056858;28;46041;-73
2022/09/11 03:50:21;;;;;;;;;8.67;8.00;;;;;17.63;71.89;101436.44;5058421;28;45507;-72
2022/09/11 03:52:46;;;;;;;;;9.00;8.00;;;;;17.42;71.65;101405.00;5053478;28;45675;-72
2022/09/11 03:55:12;;;;;;;;;7.33;6.67;;;;;17.61;71.72;101446.16;5042225;28;45286;-73
2022/09/11 03:57:38;;;;;;;;;7.00;6.00;;;;;17.57;71.91;101449.75;5050242;28;45693;-71
2022/09/11 04:00:05;;;;;;;;;9.67;7.67;;;;;17.53;72.38;101425.09;5044280;28;45647;-73
2022/09/11 04:02:31;;;;;;;;;7.00;6.00;;;;;17.03;71.71;101349.97;5052997;28;45948;-73
2022/09/11 04:04:57;;;;;;;;;13.33;8.33;;;;;17.37;71.84;101405.94;5054953;28;45240;-72
2022/09/11 04:07:23;;;;;;;;;8.00;7.67;;;;;17.54;72.02;101447.16;5060842;28;45347;-72
2022/09/11 04:09:51;;;;;;;;;10.00;7.00;;;;;17.33;72.04;101406.88;5057169;28;45428;-73
2022/09/11 04:12:18;;;;;;;;;12.33;9.00;;;;;17.58;71.82;101432.94;5056463;28;45479;-72
2022/09/11 04:14:44;;;;;;;;;8.00;8.00;;;;;17.59;71.94;101437.38;5055281;28;45532;-72
2022/09/11 04:17:09;;;;;;;;;10.00;8.33;;;;;17.57;71.85;101429.44;5057272;28;45737;-72
2022/09/11 04:19:38;;;;;;;;;7.67;7.67;;;;;17.56;72.04;101438.28;5058214;28;45492;-73
2022/09/11 04:22:07;;;;;;;;;9.33;8.33;;;;;17.42;72.26;101428.81;5056234;28;48077;-73
2022/09/11 04:24:37;;;;;;;;;13.67;10.33;;;;;17.54;72.33;101444.53;5057161;28;45676;-73
2022/09/11 04:27:03;;;;;;;;;12.00;9.67;;;;;17.14;72.52;101393.03;5057492;28;45793;-72
2022/09/11 04:29:31;;;;;;;;;12.00;12.00;;;;;17.36;72.90;101450.97;5057042;28;45794;-73
2022/09/11 04:31:57;;;;;;;;;16.33;14.67;;;;;17.13;73.41;101435.41;5056794;28;46248;-73
2022/09/11 04:34:22;;;;;;;;;15.00;13.67;;;;;17.11;73.60;101440.72;5060760;28;45496;-73
2022/09/11 04:36:48;;;;;;;;;14.67;13.67;;;;;16.97;73.95;101431.22;5060590;28;45425;-73
2022/09/11 04:39:14;;;;;;;;;19.33;17.67;;;;;16.99;74.43;101456.78;5056820;28;45454;-73
2022/09/11 04:41:39;;;;;;;;;22.00;17.00;;;;;16.88;74.82;101456.91;5055768;28;47108;-72
2022/09/11 04:44:05;;;;;;;;;20.00;16.33;;;;;16.44;75.20;101396.56;5056858;28;45576;-73
2022/09/11 04:46:31;;;;;;;;;18.33;14.33;;;;;16.82;74.82;101464.03;5055133;28;45368;-72
2022/09/11 04:49:01;;;;;;;;;16.67;15.67;;;;;16.78;75.43;101462.31;5057055;28;45403;-72
2022/09/11 04:51:38;;;;;;;;;16.67;13.67;;;;;16.83;74.80;101465.81;5057124;28;46116;-72
2022/09/11 04:54:07;;;;;;;;;12.33;12.33;;;;;16.72;75.17;101444.72;5058499;28;45469;-73
2022/09/11 04:56:36;;;;;;;;;15.67;15.00;;;;;16.48;75.33;101430.03;5061407;28;45306;-73
2022/09/11 04:59:12;;;;;;;;;17.33;15.33;;;;;16.67;75.53;101465.94;5043429;28;45549;-73
2022/09/11 05:01:38;;;;;;;;;17.33;15.67;;;;;16.63;75.62;101469.50;5056892;28;45511;-73
2022/09/11 05:04:10;;;;;;;;;17.67;16.33;;;;;16.47;75.99;101450.31;5056339;28;45522;-73
2022/09/11 05:06:37;;;;;;;;;16.67;14.33;;;;;16.56;75.93;101464.31;5057515;28;45505;-72
2022/09/11 05:09:07;;;;;;;;;17.67;13.33;;;;;16.64;75.80;101476.56;5056645;28;45687;-73
2022/09/11 05:11:34;;;;;;;;;17.00;13.67;;;;;16.43;75.96;101442.41;5056885;28;45782;-73
2022/09/11 05:14:00;;;;;;;;;16.67;15.00;;;;;16.47;76.22;101462.66;5057807;28;45525;-73
2022/09/11 05:16:28;;;;;;;;;18.67;12.33;;;;;16.57;76.37;101466.94;5056907;28;45355;-73
2022/09/11 05:18:55;;;;;;;;;19.00;14.00;;;;;16.55;76.02;101471.38;5061324;28;45342;-72
2022/09/11 05:21:23;;;;;;;;;15.67;14.67;;;;;16.56;76.12;101480.16;5057994;28;45922;-73
2022/09/11 05:23:54;;;;;;;;;17.00;12.00;;;;;16.46;76.12;101459.09;5056269;28;45434;-73
2022/09/11 05:26:28;;;;;;;;;13.67;13.67;;;;;16.53;75.98;101475.78;5056474;28;45315;-74
2022/09/11 05:28:59;;;;;;;;;13.00;13.00;;;;;16.33;76.29;101436.34;5059817;28;45448;-74
2022/09/11 05:31:25;;;;;;;;;16.00;16.00;;;;;16.30;76.03;101444.31;5044802;28;46909;-72
2022/09/11 05:33:54;;;;;;;;;17.00;15.67;;;;;16.41;76.14;101454.78;5058444;28;45553;-73
2022/09/11 05:36:21;;;;;;;;;15.00;14.67;;;;;16.48;75.97;101461.75;5059187;28;45342;-72
2022/09/11 05:38:47;;;;;;;;;12.33;12.33;;;;;16.44;75.71;101450.31;5060375;28;45478;-72
2022/09/11 05:41:13;;;;;;;;;15.33;13.00;;;;;16.51;75.66;101473.19;5074603;28;47502;-73
2022/09/11 05:43:40;;;;;;;;;16.00;11.67;;;;;16.69;75.69;101498.53;5053608;28;45509;-73
2022/09/11 05:46:10;;;;;;;;;20.33;16.00;;;;;16.62;75.96;101480.97;5057599;28;45465;-73
2022/09/11 05:48:36;;;;;;;;;14.33;14.33;;;;;16.52;75.81;101466.13;5057298;28;45497;-72
2022/09/11 05:51:07;;;;;;;;;20.67;17.67;;;;;16.65;75.51;101482.72;5054774;28;47788;-73
2022/09/11 05:53:33;;;;;;;;;16.33;13.33;;;;;16.66;75.41;101479.19;5059422;28;45320;-72
2022/09/11 05:56:07;;;;;;;;;12.67;12.67;;;;;16.81;75.63;101500.19;5056293;28;45756;-74
2022/09/11 05:58:33;;;;;;;;;20.00;17.00;;;;;16.92;75.21;101511.53;5050867;28;45543;-73
2022/09/11 06:01:04;;;;;;;;;18.67;16.33;;;;;16.91;75.01;101493.03;5054926;28;45804;-72
2022/09/11 06:03:33;;;;;;;;;18.33;16.00;;;;;16.97;74.64;101492.09;5054951;28;45881;-73
2022/09/11 06:06:00;;;;;;;;;17.00;12.67;;;;;17.03;74.83;101499.94;5047184;28;45703;-72
2022/09/11 06:08:26;;;;;;;;;19.00;18.00;;;;;17.12;74.62;101516.56;5056846;28;45294;-73
2022/09/11 06:10:51;;;;;;;;;25.00;18.33;;;;;17.11;74.46;101516.63;5059159;28;45507;-73
2022/09/11 06:13:17;;;;;;;;;17.33;17.33;;;;;17.09;74.05;101508.69;5057138;28;45588;-72
2022/09/11 06:15:47;;;;;;;;;21.67;19.00;;;;;17.37;73.03;101514.50;5055301;28;45291;-73
2022/09/11 06:18:15;;;;;;;;;16.00;15.67;;;;;17.18;72.69;101460.06;5048501;28;45686;-73
2022/09/11 06:20:41;;;;;;;;;22.00;18.33;;;;;17.46;73.02;101521.41;5054863;28;46381;-72
2022/09/11 06:23:10;;;;;;;;;20.67;16.67;;;;;17.45;72.98;101522.31;5054647;28;45513;-72
2022/09/11 06:25:39;;;;;;;;;26.00;21.00;;;;;17.26;72.56;101504.94;5060854;28;45903;-74
2022/09/11 06:28:05;;;;;;;;;18.33;18.00;;;;;17.31;72.82;101521.63;5056417;28;46714;-73
2022/09/11 06:30:30;;;;;;;;;18.67;17.33;;;;;17.33;72.97;101530.44;5058823;28;46051;-72
2022/09/11 06:32:56;;;;;;;;;20.00;18.33;;;;;17.25;72.96;101508.47;5058810;28;45407;-73
2022/09/11 06:35:22;;;;;;;;;28.33;23.00;;;;;17.33;73.31;101520.72;5049220;28;45324;-71
2022/09/11 06:37:48;;;;;;;;;28.00;24.67;;;;;16.90;73.17;101455.13;5048082;28;45871;-71
2022/09/11 06:40:14;;;;;;;;;26.33;23.00;;;;;17.23;73.11;101508.50;5065003;28;46491;-73
2022/09/11 06:42:40;;;;;;;;;24.00;21.33;;;;;16.84;73.22;101471.06;5056362;28;45397;-72
2022/09/11 06:45:09;;;;;;;;;22.00;17.00;;;;;16.92;72.98;101498.31;5062216;28;45470;-72
2022/09/11 06:47:44;;;;;;;;;19.67;19.33;;;;;16.95;74.08;101530.03;5060959;28;45383;-73
2022/09/11 06:50:10;;;;;;;;;22.00;20.33;;;;;16.87;73.90;101523.06;5053283;28;45657;-72
2022/09/11 06:52:36;;;;;;;;;20.33;16.67;;;;;16.44;74.38;101479.41;5057331;28;45472;-72
2022/09/11 06:55:12;;;;;;;;;19.67;18.33;;;;;16.83;74.55;101527.53;5058558;28;45435;-73
2022/09/11 06:57:40;;;;;;;;;22.33;19.00;;;;;16.63;75.20;101501.22;5059800;28;45282;-73
2022/09/11 07:00:07;;;;;;;;;25.00;24.00;;;;;16.78;75.16;101521.38;5062532;28;46711;-73
2022/09/11 07:02:34;;;;;;;;;23.00;20.00;;;;;16.82;74.98;101524.88;5068039;28;45456;-73
2022/09/11 07:05:00;;;;;;;;;21.00;19.67;;;;;16.63;75.08;101482.72;5057443;28;45278;-74
2022/09/11 07:07:26;;;;;;;;;16.33;16.33;;;;;17.07;74.79;101522.84;5041849;28;45389;-72
2022/09/11 07:09:52;;;;;;;;;15.67;15.00;;;;;17.21;73.79;101534.13;5069600;28;45306;-73
2022/09/11 07:12:22;;;;;;;;;19.67;17.67;;;;;17.31;73.85;101532.22;5051699;28;45850;-73
2022/09/11 07:14:49;;;;;;;;;19.00;18.00;;;;;17.40;73.59;101525.94;5060165;28;45649;-73
2022/09/11 07:17:17;;;;;;;;;17.00;12.67;;;;;17.38;73.33;101534.75;5062324;28;45256;-73
2022/09/11 07:19:43;;;;;;;;;25.00;23.33;;;;;17.31;73.54;101534.88;5047366;28;47724;-73
2022/09/11 07:22:09;;;;;;;;;22.67;21.67;;;;;17.15;73.61;101516.53;5031073;28;45537;-72
2022/09/11 07:24:36;;;;;;;;;21.00;18.67;;;;;17.33;73.46;101533.97;5052879;28;45364;-72
2022/09/11 07:27:05;;;;;;;;;25.00;20.33;;;;;17.11;73.42;101490.16;5078852;27;45580;-73
2022/09/11 07:29:31;;;;;;;;;22.67;20.67;;;;;17.31;73.64;101538.41;5050582;28;45380;-72
2022/09/11 07:32:21;;;;;;;;;26.33;23.33;;;;;17.24;73.64;101539.38;5063959;28;45493;-72
2022/09/11 07:34:50;;;;;;;;;21.67;20.67;;;;;17.31;73.63;101541.03;5032752;28;45379;-72
2022/09/11 07:37:16;;;;;;;;;25.00;21.67;;;;;17.21;73.94;101531.47;5031356;28;45469;-73
2022/09/11 07:39:45;;;;;;;;;28.00;23.67;;;;;17.07;73.58;101512.25;5057046;28;45374;-74
2022/09/11 07:42:11;;;;;;;;;29.00;25.33;;;;;16.79;73.33;101462.31;5054560;28;45518;-72
2022/09/11 07:44:44;;;;;;;;;32.00;27.33;;;;;17.18;73.33;101536.81;5054901;28;45324;-75
2022/09/11 07:47:10;;;;;;;;;25.67;21.33;;;;;17.14;73.29;101500.69;5051641;28;45516;-74
2022/09/11 07:49:39;;;;;;;;;21.33;19.33;;;;;17.38;73.43;101544.50;5066258;28;45433;-73
2022/09/11 07:52:35;;;;;;;;;30.67;28.00;;;;;17.32;72.89;101520.72;5055378;28;45389;-74
2022/09/11 07:55:03;;;;;;;;;33.00;28.33;;;;;17.47;72.95;101546.16;5046297;28;44790;-73
2022/09/11 07:57:29;;;;;;;;;27.00;23.67;;;;;17.50;72.34;101525.78;5044070;28;45875;-73
2022/09/11 07:59:55;;;;;;;;;33.00;30.00;;;;;17.40;72.48;101525.94;5053521;28;45373;-73
2022/09/11 08:02:22;;;;;;;;;37.50;31.50;;;;;17.12;72.83;101489.25;5084709;28;45316;-74
2022/09/11 08:04:47;;;;;;;;;33.00;31.33;;;;;17.00;73.14;101481.47;5058357;28;45504;-72
2022/09/11 08:07:13;;;;;;;;;38.25;32.50;;;;;17.08;73.06;101483.09;5052955;28;45547;-74
2022/09/11 08:09:39;;;;;;;;;34.50;31.25;;;;;17.08;73.39;101498.09;5068419;28;45372;-74
2022/09/11 08:12:05;;;;;;;;;34.75;32.50;;;;;17.13;72.80;101485.69;5057209;28;45421;-74
2022/09/11 08:14:31;;;;;;;;;28.33;28.33;;;;;17.48;72.71;101516.09;5047993;28;45452;-74
2022/09/11 08:16:57;;;;;;;;;27.67;25.00;;;;;17.71;72.01;101536.97;5066496;28;45308;-75
2022/09/11 08:19:23;;;;;;;;;32.00;26.67;;;;;17.73;72.05;101536.06;5061379;28;47407;-74
2022/09/11 08:21:51;;;;;;;;;26.67;24.67;;;;;17.77;71.83;101543.06;5064355;28;45459;-76
2022/09/11 08:24:23;;;;;;;;;33.00;28.33;;;;;17.38;71.66;101462.41;5060923;28;44921;-73
2022/09/11 08:26:53;;;;;;;;;32.33;29.33;;;;;17.87;71.57;101535.88;5060781;28;45441;-69
2022/09/11 08:29:23;;;;;;;;;41.50;32.75;;;;;17.91;71.62;101532.25;5066133;28;44982;-74
2022/09/11 08:31:49;;;;;;;;;42.00;34.00;;;;;17.40;71.71;101446.50;5061453;28;45473;-74
2022/09/11 08:34:16;;;;;;;;;39.33;33.67;;;;;17.62;71.46;101468.22;5061487;28;45504;-75
2022/09/11 08:36:44;;;;;;;;;53.25;35.75;;;;;18.05;70.99;101540.00;5065163;28;45442;-73
2022/09/11 08:39:10;;;;;;;;;48.00;37.75;;;;;18.15;70.74;101533.66;5054120;28;46704;-73
2022/09/11 08:41:55;;;;;;;;;35.75;32.25;;;;;18.43;70.54;101539.34;5091375;27;45322;-72
2022/09/11 08:44:35;;;;;;;;;33.33;28.33;;;;;18.80;69.23;101529.88;5056082;28;45459;-73
2022/09/11 08:47:13;;;;;;;;;40.67;32.67;;;;;19.02;68.46;101532.97;5053076;28;45577;-72
2022/09/11 08:49:52;;;;;;;;;28.33;27.00;;;;;19.37;67.57;101540.19;5061123;28;46243;-70
2022/09/11 08:52:17;;;;;;;;;42.00;33.33;;;;;19.38;66.99;101536.63;5054729;28;45688;-70
2022/09/11 08:54:46;;;;;;;;;38.00;31.67;;;;;19.37;66.27;101540.19;5055862;28;45794;-71
2022/09/11 08:57:42;;;;;;;;;38.67;33.33;;;;;19.40;66.78;101552.53;5060093;28;45476;-72
2022/09/11 09:00:18;;;;;;;;;51.25;37.75;;;;;19.53;65.69;101547.81;5048670;28;46587;-72
2022/09/11 09:02:55;;;;;;;;;43.50;37.00;;;;;19.48;65.99;101548.81;5056085;28;45511;-70
2022/09/11 09:05:49;;;;;;;;;35.33;32.00;;;;;19.83;65.68;101549.81;5057958;28;45481;-72
2022/09/11 09:08:30;;;;;;;;;37.75;33.75;;;;;20.07;65.45;101547.47;5040426;28;45459;-71
2022/09/11 09:11:24;;;;;;;;;36.67;30.67;;;;;20.00;64.66;101521.94;5055540;28;45632;-70
2022/09/11 09:14:23;;;;;;;;;43.67;32.67;;;;;20.12;64.28;101535.81;5048474;28;45575;-72
2022/09/11 09:17:04;;;;;;;;;37.67;32.00;;;;;20.22;63.88;101551.56;5055610;28;45485;-74
2022/09/11 09:19:38;;;;;;;;;37.67;32.67;;;;;20.04;64.30;101539.56;5054778;28;45535;-72
2022/09/11 09:22:18;;;;;;;;;33.00;30.33;;;;;20.19;64.36;101548.94;5055940;28;45452;-73
2022/09/11 09:24:58;;;;;;;;;42.67;34.00;;;;;19.97;63.81;101525.53;5036982;28;45562;-72
2022/09/11 09:27:33;;;;;;;;;43.00;36.33;;;;;19.89;64.52;101544.34;5055565;28;45325;-73
2022/09/11 09:30:04;;;;;;;;;42.00;35.00;;;;;20.08;64.30;101536.78;5058833;28;45326;-72
2022/09/11 09:32:35;;;;;;;;;39.33;34.67;;;;;20.14;63.67;101554.38;5059755;28;46200;-71
2022/09/11 09:35:11;;;;;;;;;41.33;34.67;;;;;19.99;64.01;101515.75;5059782;28;45647;-72
2022/09/11 09:37:37;;;;;;;;;30.00;29.67;;;;;20.05;63.78;101498.75;5057588;28;45388;-73
2022/09/11 09:40:09;;;;;;;;;38.67;31.33;;;;;20.40;63.43;101547.53;5055766;28;45470;-72
2022/09/11 09:42:43;;;;;;;;;41.33;32.33;;;;;20.32;62.70;101551.25;5032811;28;45747;-72
2022/09/11 09:45:47;;;;;;;;;36.33;33.00;;;;;20.28;63.20;101544.25;5036326;28;45440;-76
2022/09/11 09:48:13;;;;;;;;;36.67;29.00;;;;;19.97;62.91;101483.00;5053292;28;46065;-73
2022/09/11 09:50:43;;;;;;;;;32.67;28.33;;;;;20.40;62.73;101545.72;5041533;28;45368;-73
2022/09/11 09:53:17;;;;;;;;;25.67;25.67;;;;;20.37;62.40;101537.84;5055236;28;45312;-72
2022/09/11 09:55:46;;;;;;;;;22.33;22.33;;;;;20.28;61.46;101538.06;5041695;28;45482;-74
2022/09/11 09:58:13;;;;;;;;;19.33;18.33;;;;;20.42;61.80;101543.03;5046404;28;45766;-73
2022/09/11 10:00:40;;;;;;;;;21.67;21.00;;;;;20.51;61.79;101545.47;5049726;28;45751;-73
2022/09/11 10:03:21;;;;;;;;;24.33;22.33;;;;;20.54;61.76;101527.63;5054467;28;45664;-73
2022/09/11 10:05:52;;;;;;;;;26.67;24.00;;;;;20.68;61.17;101519.28;5053637;28;45660;-73
2022/09/11 10:08:37;;;;;;;;;23.33;20.67;;;;;20.83;61.17;101536.63;5059475;28;45373;-72
2022/09/11 10:11:06;;;;;;;;;16.33;16.33;;;;;20.82;61.42;101526.91;5056993;28;45569;-74
2022/09/11 10:13:36;;;;;;;;;25.67;25.67;;;;;20.81;61.37;101505.63;5054807;28;45379;-73
2022/09/11 10:16:04;;;;;;;;;22.67;22.67;;;;;20.78;60.50;101495.06;5054493;28;45605;-71
2022/09/11 10:18:34;;;;;;;;;20.00;18.33;;;;;20.91;60.71;101525.78;5055834;28;45501;-73
2022/09/11 10:21:12;;;;;;;;;25.33;25.33;;;;;21.04;60.64;101524.50;5059136;28;45418;-74
2022/09/11 10:23:50;;;;;;;;;19.00;17.67;;;;;21.00;59.61;101512.19;5055967;28;45448;-74
2022/09/11 10:26:23;;;;;;;;;16.67;13.00;;;;;21.35;59.22;101536.91;5054199;28;45882;-74
2022/09/11 10:28:48;;;;;;;;;13.67;13.33;;;;;20.88;58.84;101451.28;5055665;28;45506;-74
2022/09/11 10:31:15;;;;;;;;;21.33;18.00;;;;;21.28;58.72;101508.69;5049632;28;45450;-73
2022/09/11 10:33:50;;;;;;;;;16.33;15.33;;;;;21.52;58.79;101529.31;5056908;28;45791;-75
2022/09/11 10:36:24;;;;;;;;;12.33;12.33;;;;;21.25;58.54;101466.19;5053133;28;45442;-74
2022/09/11 10:38:51;;;;;;;;;16.00;12.67;;;;;21.67;57.35;101511.97;5058004;28;45362;-75
2022/09/11 10:41:31;;;;;;;;;9.67;9.00;;;;;21.78;57.92;101487.59;5053285;28;45763;-74
2022/09/11 10:44:10;;;;;;;;;11.67;11.67;;;;;22.09;57.42;101510.59;5055914;28;46048;-72
2022/09/11 10:46:40;;;;;;;;;11.33;11.33;;;;;21.92;56.14;101447.16;5058307;28;45567;-75
2022/09/11 10:49:24;;;;;;;;;11.67;10.67;;;;;22.13;55.88;101474.88;5056332;28;45819;-73
2022/09/11 10:52:07;;;;;;;;;11.67;11.00;;;;;22.57;55.42;101499.19;5055858;28;45598;-73
2022/09/11 10:54:39;;;;;;;;;12.33;11.33;;;;;22.61;55.77;101501.69;5041369;28;46344;-73
2022/09/11 10:57:15;;;;;;;;;13.33;10.33;;;;;22.78;54.92;101501.06;5057325;28;45693;-72
2022/09/11 10:59:58;;;;;;;;;12.67;10.00;;;;;22.91;55.48;101473.91;5022866;28;45605;-74
2022/09/11 11:02:29;;;;;;;;;14.33;13.33;;;;;23.15;54.89;101486.34;5059002;28;45358;-73
2022/09/11 11:05:06;;;;;;;;;17.33;16.67;;;;;23.21;54.07;101486.13;5056494;28;45822;-73
2022/09/11 11:07:59;;;;;;;;;15.00;13.67;;;;;23.32;53.58;101448.25;5054285;28;45445;-71
2022/09/11 11:10:31;;;;;;;;;12.00;11.33;;;;;23.66;52.58;101482.53;5057130;28;45488;-74
2022/09/11 11:13:28;;;;;;;;;10.00;10.00;;;;;23.68;52.28;101474.44;5052602;28;45453;-72
2022/09/11 11:16:12;;;;;;;;;9.67;9.67;;;;;23.95;52.23;101476.94;5052901;28;46193;-73
2022/09/11 11:19:06;;;;;;;;;9.00;9.00;;;;;23.51;51.61;101475.13;5052472;28;45631;-72
2022/09/11 11:21:47;;;;;;;;;9.33;8.33;;;;;23.69;52.61;101471.72;5055614;28;45374;-73
2022/09/11 11:24:37;;;;;;;;;10.33;10.33;;;;;24.22;51.25;101467.72;5045051;28;45445;-74
2022/09/11 11:27:15;;;;;;;;;11.33;10.00;;;;;24.56;49.31;101466.28;5058021;28;46043;-73
2022/09/11 11:30:07;;;;;;;;;14.00;14.00;;;;;24.67;48.52;101471.16;5058432;28;46086;-74
2022/09/11 11:32:57;;;;;;;;;9.33;8.67;;;;;25.12;48.38;101457.41;5057221;28;45445;-74
2022/09/11 11:35:49;;;;;;;;;11.00;9.67;;;;;25.50;47.60;101465.44;5058441;28;45616;-75
2022/09/11 11:38:39;;;;;;;;;7.67;7.67;;;;;25.84;46.65;101415.50;5058171;28;45430;-73